sensor_id;sensor_type;location;lat;lon;timestamp;P1;durP1;ratioP1;P2;durP2;ratioP2
13967;SDS011;39536;52.198;9.920;2023-05-10T00:01:24;4.90;;;3.03;;
13967;SDS011;39536;52.198;9.920;2023-05-10T00:03:51;3.87;;;3.10;;
13967;SDS011;39536;52.198;9.920;2023-05-10T00:06:17;3.87;;;3.57;;
13967;SDS011;39536;52.198;9.920;2023-05-10T00:08:44;3.90;;;3.43;;
13967;SDS011;39536;52.198;9.920;2023-05-10T00:11:11;4.37;;;3.30;;
13967;SDS011;39536;52.198;9.920;2023-05-10T00:13:39;4.03;;;3.57;;
13967;SDS011;39536;52.198;9.920;2023-05-10T00:16:06;3.83;;;3.10;;
13967;SDS011;39536;52.198;9.920;2023-05-10T00:18:32;4.03;;;3.30;;
13967;SDS011;39536;52.198;9.920;2023-05-10T00:20:59;3.60;;;3.27;;
13967;SDS011;39536;52.198;9.920;2023-05-10T00:23:25;4.27;;;3.87;;
13967;SDS011;39536;52.198;9.920;2023-05-10T00:25:52;3.57;;;3.33;;
13967;SDS011;39536;52.198;9.920;2023-05-10T00:28:18;3.83;;;3.50;;
13967;SDS011;39536;52.198;9.920;2023-05-10T00:30:46;3.73;;;3.43;;
13967;SDS011;39536;52.198;9.920;2023-05-10T00:33:12;3.43;;;3.23;;
13967;SDS011;39536;52.198;9.920;2023-05-10T00:35:39;4.37;;;3.77;;
13967;SDS011;39536;52.198;9.920;2023-05-10T00:38:05;3.47;;;3.17;;
13967;SDS011;39536;52.198;9.920;2023-05-10T00:40:32;3.80;;;3.50;;
13967;SDS011;39536;52.198;9.920;2023-05-10T00:42:58;7.67;;;3.40;;
13967;SDS011;39536;52.198;9.920;2023-05-10T00:45:26;3.93;;;3.63;;
13967;SDS011;39536;52.198;9.920;2023-05-10T00:47:54;3.53;;;3.33;;
13967;SDS011;39536;52.198;9.920;2023-05-10T00:50:21;6.27;;;3.83;;
13967;SDS011;39536;52.198;9.920;2023-05-10T00:52:47;4.23;;;3.83;;
13967;SDS011;39536;52.198;9.920;2023-05-10T00:55:15;4.63;;;3.97;;
13967;SDS011;39536;52.198;9.920;2023-05-10T00:57:41;3.77;;;3.57;;
13967;SDS011;39536;52.198;9.920;2023-05-10T01:00:08;4.33;;;3.67;;
13967;SDS011;39536;52.198;9.920;2023-05-10T01:02:36;5.20;;;3.80;;
13967;SDS011;39536;52.198;9.920;2023-05-10T01:05:04;4.27;;;3.93;;
13967;SDS011;39536;52.198;9.920;2023-05-10T01:07:31;5.70;;;3.60;;
13967;SDS011;39536;52.198;9.920;2023-05-10T01:09:58;3.83;;;3.53;;
13967;SDS011;39536;52.198;9.920;2023-05-10T01:12:25;4.27;;;3.97;;
13967;SDS011;39536;52.198;9.920;2023-05-10T01:14:52;4.67;;;3.87;;
13967;SDS011;39536;52.198;9.920;2023-05-10T01:17:19;4.20;;;3.73;;
13967;SDS011;39536;52.198;9.920;2023-05-10T01:19:47;5.47;;;4.03;;
13967;SDS011;39536;52.198;9.920;2023-05-10T01:22:20;4.10;;;3.70;;
13967;SDS011;39536;52.198;9.920;2023-05-10T01:25:18;4.47;;;4.07;;
13967;SDS011;39536;52.198;9.920;2023-05-10T01:28:08;4.70;;;4.20;;
13967;SDS011;39536;52.198;9.920;2023-05-10T01:31:03;4.50;;;4.20;;
13967;SDS011;39536;52.198;9.920;2023-05-10T01:33:43;3.80;;;3.50;;
13967;SDS011;39536;52.198;9.920;2023-05-10T01:36:16;4.80;;;4.50;;
13967;SDS011;39536;52.198;9.920;2023-05-10T01:38:51;4.63;;;4.33;;
13967;SDS011;39536;52.198;9.920;2023-05-10T01:41:24;4.10;;;3.80;;
13967;SDS011;39536;52.198;9.920;2023-05-10T01:44:01;4.27;;;3.97;;
13967;SDS011;39536;52.198;9.920;2023-05-10T01:46:33;7.27;;;4.33;;
13967;SDS011;39536;52.198;9.920;2023-05-10T01:49:04;4.53;;;4.23;;
13967;SDS011;39536;52.198;9.920;2023-05-10T01:51:36;6.13;;;4.40;;
13967;SDS011;39536;52.198;9.920;2023-05-10T01:54:06;4.63;;;4.23;;
13967;SDS011;39536;52.198;9.920;2023-05-10T01:56:35;3.83;;;3.53;;
13967;SDS011;39536;52.198;9.920;2023-05-10T01:59:06;7.30;;;4.80;;
13967;SDS011;39536;52.198;9.920;2023-05-10T02:01:39;4.77;;;4.47;;
13967;SDS011;39536;52.198;9.920;2023-05-10T02:04:07;4.87;;;4.47;;
13967;SDS011;39536;52.198;9.920;2023-05-10T02:06:36;5.10;;;4.60;;
13967;SDS011;39536;52.198;9.920;2023-05-10T02:09:05;6.83;;;5.07;;
13967;SDS011;39536;52.198;9.920;2023-05-10T02:11:34;4.60;;;4.30;;
13967;SDS011;39536;52.198;9.920;2023-05-10T02:14:03;5.00;;;4.60;;
13967;SDS011;39536;52.198;9.920;2023-05-10T02:16:31;4.80;;;4.50;;
13967;SDS011;39536;52.198;9.920;2023-05-10T02:18:58;5.03;;;4.73;;
13967;SDS011;39536;52.198;9.920;2023-05-10T02:21:28;5.47;;;4.97;;
13967;SDS011;39536;52.198;9.920;2023-05-10T02:23:57;6.77;;;4.80;;
13967;SDS011;39536;52.198;9.920;2023-05-10T02:26:26;4.70;;;4.30;;
13967;SDS011;39536;52.198;9.920;2023-05-10T02:28:53;7.00;;;4.60;;
13967;SDS011;39536;52.198;9.920;2023-05-10T02:31:22;5.00;;;4.67;;
13967;SDS011;39536;52.198;9.920;2023-05-10T02:33:49;4.73;;;4.43;;
13967;SDS011;39536;52.198;9.920;2023-05-10T02:36:17;6.43;;;4.77;;
13967;SDS011;39536;52.198;9.920;2023-05-10T02:38:47;5.20;;;4.80;;
13967;SDS011;39536;52.198;9.920;2023-05-10T02:41:15;5.57;;;5.07;;
13967;SDS011;39536;52.198;9.920;2023-05-10T02:43:42;5.60;;;5.17;;
13967;SDS011;39536;52.198;9.920;2023-05-10T02:46:10;5.33;;;5.03;;
13967;SDS011;39536;52.198;9.920;2023-05-10T02:48:36;5.67;;;5.27;;
13967;SDS011;39536;52.198;9.920;2023-05-10T02:51:04;7.43;;;5.37;;
13967;SDS011;39536;52.198;9.920;2023-05-10T02:53:33;7.57;;;5.80;;
13967;SDS011;39536;52.198;9.920;2023-05-10T02:56:04;5.70;;;5.20;;
13967;SDS011;39536;52.198;9.920;2023-05-10T02:58:34;5.73;;;5.23;;
13967;SDS011;39536;52.198;9.920;2023-05-10T03:01:00;6.03;;;5.63;;
13967;SDS011;39536;52.198;9.920;2023-05-10T03:03:27;6.10;;;5.60;;
13967;SDS011;39536;52.198;9.920;2023-05-10T03:05:53;6.57;;;6.07;;
13967;SDS011;39536;52.198;9.920;2023-05-10T03:08:20;7.27;;;6.50;;
13967;SDS011;39536;52.198;9.920;2023-05-10T03:10:50;6.37;;;5.73;;
13967;SDS011;39536;52.198;9.920;2023-05-10T03:13:31;9.40;;;5.67;;
13967;SDS011;39536;52.198;9.920;2023-05-10T03:16:05;6.73;;;5.90;;
13967;SDS011;39536;52.198;9.920;2023-05-10T03:18:37;7.37;;;6.77;;
13967;SDS011;39536;52.198;9.920;2023-05-10T03:21:08;6.30;;;5.90;;
13967;SDS011;39536;52.198;9.920;2023-05-10T03:23:39;6.00;;;5.60;;
13967;SDS011;39536;52.198;9.920;2023-05-10T03:26:08;8.67;;;6.17;;
13967;SDS011;39536;52.198;9.920;2023-05-10T03:28:36;6.23;;;5.83;;
13967;SDS011;39536;52.198;9.920;2023-05-10T03:31:03;12.10;;;6.17;;
13967;SDS011;39536;52.198;9.920;2023-05-10T03:33:31;6.53;;;5.93;;
13967;SDS011;39536;52.198;9.920;2023-05-10T03:35:58;6.57;;;5.97;;
13967;SDS011;39536;52.198;9.920;2023-05-10T03:38:25;7.00;;;6.40;;
13967;SDS011;39536;52.198;9.920;2023-05-10T03:40:51;6.90;;;6.30;;
13967;SDS011;39536;52.198;9.920;2023-05-10T03:43:18;7.60;;;7.10;;
13967;SDS011;39536;52.198;9.920;2023-05-10T03:45:46;7.43;;;6.90;;
13967;SDS011;39536;52.198;9.920;2023-05-10T03:48:12;6.40;;;6.00;;
13967;SDS011;39536;52.198;9.920;2023-05-10T03:50:39;6.70;;;6.30;;
13967;SDS011;39536;52.198;9.920;2023-05-10T03:53:06;6.40;;;6.00;;
13967;SDS011;39536;52.198;9.920;2023-05-10T03:55:32;7.60;;;6.90;;
13967;SDS011;39536;52.198;9.920;2023-05-10T03:58:01;7.13;;;6.63;;
13967;SDS011;39536;52.198;9.920;2023-05-10T04:00:27;6.70;;;6.10;;
13967;SDS011;39536;52.198;9.920;2023-05-10T04:02:56;7.80;;;7.17;;
13967;SDS011;39536;52.198;9.920;2023-05-10T04:05:23;6.97;;;6.50;;
13967;SDS011;39536;52.198;9.920;2023-05-10T04:07:49;7.20;;;6.63;;
13967;SDS011;39536;52.198;9.920;2023-05-10T04:10:16;7.10;;;6.50;;
13967;SDS011;39536;52.198;9.920;2023-05-10T04:12:42;7.67;;;7.17;;
13967;SDS011;39536;52.198;9.920;2023-05-10T04:15:09;7.60;;;7.00;;
13967;SDS011;39536;52.198;9.920;2023-05-10T04:17:36;7.70;;;7.00;;
13967;SDS011;39536;52.198;9.920;2023-05-10T04:20:05;9.07;;;7.30;;
13967;SDS011;39536;52.198;9.920;2023-05-10T04:22:32;8.80;;;7.50;;
13967;SDS011;39536;52.198;9.920;2023-05-10T04:24:59;7.80;;;7.10;;
13967;SDS011;39536;52.198;9.920;2023-05-10T04:27:25;7.53;;;6.90;;
13967;SDS011;39536;52.198;9.920;2023-05-10T04:29:52;8.27;;;7.67;;
13967;SDS011;39536;52.198;9.920;2023-05-10T04:32:19;8.17;;;7.57;;
13967;SDS011;39536;52.198;9.920;2023-05-10T04:34:45;7.63;;;7.10;;
13967;SDS011;39536;52.198;9.920;2023-05-10T04:37:13;7.63;;;7.07;;
13967;SDS011;39536;52.198;9.920;2023-05-10T04:39:40;8.03;;;7.13;;
13967;SDS011;39536;52.198;9.920;2023-05-10T04:42:07;9.70;;;7.67;;
13967;SDS011;39536;52.198;9.920;2023-05-10T04:44:33;7.60;;;6.90;;
13967;SDS011;39536;52.198;9.920;2023-05-10T04:47:00;7.90;;;7.03;;
13967;SDS011;39536;52.198;9.920;2023-05-10T04:49:27;8.13;;;7.60;;
13967;SDS011;39536;52.198;9.920;2023-05-10T04:51:53;7.67;;;7.17;;
13967;SDS011;39536;52.198;9.920;2023-05-10T04:54:21;7.73;;;7.07;;
13967;SDS011;39536;52.198;9.920;2023-05-10T04:56:48;8.37;;;7.80;;
13967;SDS011;39536;52.198;9.920;2023-05-10T04:59:15;8.87;;;8.17;;
13967;SDS011;39536;52.198;9.920;2023-05-10T05:01:42;8.50;;;7.87;;
13967;SDS011;39536;52.198;9.920;2023-05-10T05:04:08;8.10;;;7.60;;
13967;SDS011;39536;52.198;9.920;2023-05-10T05:06:35;9.37;;;8.53;;
13967;SDS011;39536;52.198;9.920;2023-05-10T05:09:02;7.97;;;7.47;;
13967;SDS011;39536;52.198;9.920;2023-05-10T05:11:30;13.57;;;10.53;;
13967;SDS011;39536;52.198;9.920;2023-05-10T05:13:56;9.57;;;8.77;;
13967;SDS011;39536;52.198;9.920;2023-05-10T05:16:24;9.03;;;8.40;;
13967;SDS011;39536;52.198;9.920;2023-05-10T05:18:50;8.97;;;8.17;;
13967;SDS011;39536;52.198;9.920;2023-05-10T05:21:17;8.43;;;7.73;;
13967;SDS011;39536;52.198;9.920;2023-05-10T05:23:44;6.30;;;5.87;;
13967;SDS011;39536;52.198;9.920;2023-05-10T05:26:11;6.70;;;6.03;;
13967;SDS011;39536;52.198;9.920;2023-05-10T05:28:39;6.77;;;6.07;;
13967;SDS011;39536;52.198;9.920;2023-05-10T05:31:06;6.50;;;6.00;;
13967;SDS011;39536;52.198;9.920;2023-05-10T05:33:34;6.17;;;5.73;;
13967;SDS011;39536;52.198;9.920;2023-05-10T05:36:01;6.70;;;6.00;;
13967;SDS011;39536;52.198;9.920;2023-05-10T05:38:28;6.73;;;6.23;;
13967;SDS011;39536;52.198;9.920;2023-05-10T05:40:54;6.57;;;5.97;;
13967;SDS011;39536;52.198;9.920;2023-05-10T05:43:21;7.00;;;6.23;;
13967;SDS011;39536;52.198;9.920;2023-05-10T05:45:49;6.77;;;6.27;;
13967;SDS011;39536;52.198;9.920;2023-05-10T05:48:15;6.63;;;6.03;;
13967;SDS011;39536;52.198;9.920;2023-05-10T05:50:42;7.17;;;6.57;;
13967;SDS011;39536;52.198;9.920;2023-05-10T05:53:09;7.47;;;6.87;;
13967;SDS011;39536;52.198;9.920;2023-05-10T05:55:35;7.47;;;6.97;;
13967;SDS011;39536;52.198;9.920;2023-05-10T05:58:02;7.73;;;7.17;;
13967;SDS011;39536;52.198;9.920;2023-05-10T06:00:29;6.97;;;6.47;;
13967;SDS011;39536;52.198;9.920;2023-05-10T06:02:57;13.37;;;7.13;;
13967;SDS011;39536;52.198;9.920;2023-05-10T06:05:24;7.60;;;6.80;;
13967;SDS011;39536;52.198;9.920;2023-05-10T06:07:50;8.40;;;6.93;;
13967;SDS011;39536;52.198;9.920;2023-05-10T06:10:17;7.63;;;6.97;;
13967;SDS011;39536;52.198;9.920;2023-05-10T06:12:43;7.70;;;7.07;;
13967;SDS011;39536;52.198;9.920;2023-05-10T06:15:10;7.47;;;6.97;;
13967;SDS011;39536;52.198;9.920;2023-05-10T06:17:37;10.50;;;7.23;;
13967;SDS011;39536;52.198;9.920;2023-05-10T06:20:07;7.00;;;6.40;;
13967;SDS011;39536;52.198;9.920;2023-05-10T06:22:34;7.60;;;6.60;;
13967;SDS011;39536;52.198;9.920;2023-05-10T06:25:01;7.23;;;6.73;;
13967;SDS011;39536;52.198;9.920;2023-05-10T06:27:28;8.10;;;7.50;;
13967;SDS011;39536;52.198;9.920;2023-05-10T06:29:54;8.10;;;7.50;;
13967;SDS011;39536;52.198;9.920;2023-05-10T06:32:21;7.70;;;7.10;;
13967;SDS011;39536;52.198;9.920;2023-05-10T06:34:47;7.20;;;6.70;;
13967;SDS011;39536;52.198;9.920;2023-05-10T06:37:15;7.03;;;6.63;;
13967;SDS011;39536;52.198;9.920;2023-05-10T06:39:42;8.00;;;7.30;;
13967;SDS011;39536;52.198;9.920;2023-05-10T06:42:09;7.73;;;7.20;;
13967;SDS011;39536;52.198;9.920;2023-05-10T06:44:36;7.53;;;7.00;;
13967;SDS011;39536;52.198;9.920;2023-05-10T06:47:02;13.77;;;7.20;;
13967;SDS011;39536;52.198;9.920;2023-05-10T06:49:29;8.00;;;7.40;;
13967;SDS011;39536;52.198;9.920;2023-05-10T06:51:56;9.40;;;7.37;;
13967;SDS011;39536;52.198;9.920;2023-05-10T06:54:24;8.67;;;7.77;;
13967;SDS011;39536;52.198;9.920;2023-05-10T06:56:50;8.30;;;7.60;;
13967;SDS011;39536;52.198;9.920;2023-05-10T06:59:17;8.30;;;7.53;;
13967;SDS011;39536;52.198;9.920;2023-05-10T07:01:44;7.30;;;6.80;;
13967;SDS011;39536;52.198;9.920;2023-05-10T07:04:11;6.57;;;6.17;;
13967;SDS011;39536;52.198;9.920;2023-05-10T07:06:37;6.87;;;6.37;;
13967;SDS011;39536;52.198;9.920;2023-05-10T07:09:04;7.00;;;6.57;;
13967;SDS011;39536;52.198;9.920;2023-05-10T07:11:32;7.27;;;6.73;;
13967;SDS011;39536;52.198;9.920;2023-05-10T07:13:59;7.47;;;6.90;;
13967;SDS011;39536;52.198;9.920;2023-05-10T07:16:25;7.30;;;6.70;;
13967;SDS011;39536;52.198;9.920;2023-05-10T07:18:52;7.30;;;6.80;;
13967;SDS011;39536;52.198;9.920;2023-05-10T07:21:19;7.57;;;6.20;;
13967;SDS011;39536;52.198;9.920;2023-05-10T07:23:45;7.27;;;6.77;;
13967;SDS011;39536;52.198;9.920;2023-05-10T07:26:12;7.70;;;7.03;;
13967;SDS011;39536;52.198;9.920;2023-05-10T07:28:41;6.67;;;6.17;;
13967;SDS011;39536;52.198;9.920;2023-05-10T07:31:07;6.77;;;6.17;;
13967;SDS011;39536;52.198;9.920;2023-05-10T07:33:34;5.97;;;5.57;;
13967;SDS011;39536;52.198;9.920;2023-05-10T07:36:01;6.97;;;6.33;;
13967;SDS011;39536;52.198;9.920;2023-05-10T07:38:27;6.00;;;5.40;;
13967;SDS011;39536;52.198;9.920;2023-05-10T07:40:54;5.83;;;5.43;;
13967;SDS011;39536;52.198;9.920;2023-05-10T07:43:20;6.03;;;5.53;;
13967;SDS011;39536;52.198;9.920;2023-05-10T07:45:48;6.17;;;5.77;;
13967;SDS011;39536;52.198;9.920;2023-05-10T07:48:15;6.10;;;5.70;;
13967;SDS011;39536;52.198;9.920;2023-05-10T07:50:41;6.30;;;5.90;;
13967;SDS011;39536;52.198;9.920;2023-05-10T07:53:09;5.37;;;4.97;;
13967;SDS011;39536;52.198;9.920;2023-05-10T07:55:35;5.30;;;4.97;;
13967;SDS011;39536;52.198;9.920;2023-05-10T07:58:02;4.47;;;4.17;;
13967;SDS011;39536;52.198;9.920;2023-05-10T08:00:29;4.70;;;4.40;;
13967;SDS011;39536;52.198;9.920;2023-05-10T08:02:57;4.40;;;4.10;;
13967;SDS011;39536;52.198;9.920;2023-05-10T08:05:23;3.60;;;3.40;;
13967;SDS011;39536;52.198;9.920;2023-05-10T08:07:50;3.70;;;3.50;;
13967;SDS011;39536;52.198;9.920;2023-05-10T08:10:16;3.17;;;2.97;;
13967;SDS011;39536;52.198;9.920;2023-05-10T08:12:43;3.27;;;3.07;;
13967;SDS011;39536;52.198;9.920;2023-05-10T08:15:10;3.57;;;3.37;;
13967;SDS011;39536;52.198;9.920;2023-05-10T08:17:37;2.83;;;2.73;;
13967;SDS011;39536;52.198;9.920;2023-05-10T08:20:05;2.90;;;2.80;;
13967;SDS011;39536;52.198;9.920;2023-05-10T08:22:32;3.17;;;2.97;;
13967;SDS011;39536;52.198;9.920;2023-05-10T08:24:59;3.50;;;3.20;;
13967;SDS011;39536;52.198;9.920;2023-05-10T08:27:26;3.17;;;2.97;;
13967;SDS011;39536;52.198;9.920;2023-05-10T08:29:52;3.40;;;3.20;;
13967;SDS011;39536;52.198;9.920;2023-05-10T08:32:19;3.60;;;3.40;;
13967;SDS011;39536;52.198;9.920;2023-05-10T08:34:46;4.43;;;3.50;;
13967;SDS011;39536;52.198;9.920;2023-05-10T08:37:14;3.37;;;3.17;;
13967;SDS011;39536;52.198;9.920;2023-05-10T08:39:41;3.60;;;3.40;;
13967;SDS011;39536;52.198;9.920;2023-05-10T08:42:08;2.90;;;2.80;;
13967;SDS011;39536;52.198;9.920;2023-05-10T08:44:36;3.00;;;2.70;;
13967;SDS011;39536;52.198;9.920;2023-05-10T08:47:04;2.80;;;2.70;;
13967;SDS011;39536;52.198;9.920;2023-05-10T08:49:32;3.20;;;2.90;;
13967;SDS011;39536;52.198;9.920;2023-05-10T08:52:00;2.30;;;2.20;;
13967;SDS011;39536;52.198;9.920;2023-05-10T08:54:31;2.00;;;1.90;;
13967;SDS011;39536;52.198;9.920;2023-05-10T08:56:57;1.90;;;1.40;;
13967;SDS011;39536;52.198;9.920;2023-05-10T08:59:24;1.10;;;1.10;;
13967;SDS011;39536;52.198;9.920;2023-05-10T09:01:51;1.47;;;1.37;;
13967;SDS011;39536;52.198;9.920;2023-05-10T09:04:20;1.83;;;1.20;;
13967;SDS011;39536;52.198;9.920;2023-05-10T09:06:47;2.13;;;1.30;;
13967;SDS011;39536;52.198;9.920;2023-05-10T09:09:14;1.30;;;1.20;;
13967;SDS011;39536;52.198;9.920;2023-05-10T09:11:42;2.03;;;1.00;;
13967;SDS011;39536;52.198;9.920;2023-05-10T09:14:09;1.03;;;1.03;;
13967;SDS011;39536;52.198;9.920;2023-05-10T09:16:37;2.00;;;1.57;;
13967;SDS011;39536;52.198;9.920;2023-05-10T09:19:03;1.00;;;1.00;;
13967;SDS011;39536;52.198;9.920;2023-05-10T09:21:30;0.80;;;0.80;;
13967;SDS011;39536;52.198;9.920;2023-05-10T09:23:57;0.83;;;0.83;;
13967;SDS011;39536;52.198;9.920;2023-05-10T09:26:29;0.87;;;0.83;;
13967;SDS011;39536;52.198;9.920;2023-05-10T09:28:57;0.67;;;0.60;;
13967;SDS011;39536;52.198;9.920;2023-05-10T09:31:24;0.67;;;0.67;;
13967;SDS011;39536;52.198;9.920;2023-05-10T09:34:09;0.50;;;0.50;;
13967;SDS011;39536;52.198;9.920;2023-05-10T09:36:36;0.50;;;0.50;;
13967;SDS011;39536;52.198;9.920;2023-05-10T09:39:02;1.20;;;0.57;;
13967;SDS011;39536;52.198;9.920;2023-05-10T09:41:29;0.60;;;0.60;;
13967;SDS011;39536;52.198;9.920;2023-05-10T09:43:56;0.80;;;0.80;;
13967;SDS011;39536;52.198;9.920;2023-05-10T09:46:23;1.00;;;1.00;;
13967;SDS011;39536;52.198;9.920;2023-05-10T09:48:49;0.83;;;0.83;;
13967;SDS011;39536;52.198;9.920;2023-05-10T09:51:19;1.10;;;1.00;;
13967;SDS011;39536;52.198;9.920;2023-05-10T09:53:46;1.00;;;1.00;;
13967;SDS011;39536;52.198;9.920;2023-05-10T09:56:18;1.07;;;1.03;;
13967;SDS011;39536;52.198;9.920;2023-05-10T09:59:03;1.00;;;1.00;;
13967;SDS011;39536;52.198;9.920;2023-05-10T10:01:29;0.97;;;0.97;;
13967;SDS011;39536;52.198;9.920;2023-05-10T10:03:56;1.00;;;1.00;;
13967;SDS011;39536;52.198;9.920;2023-05-10T10:06:23;1.07;;;1.00;;
13967;SDS011;39536;52.198;9.920;2023-05-10T10:08:50;1.60;;;1.50;;
13967;SDS011;39536;52.198;9.920;2023-05-10T10:11:17;1.07;;;1.07;;
13967;SDS011;39536;52.198;9.920;2023-05-10T10:13:43;1.20;;;1.20;;
13967;SDS011;39536;52.198;9.920;2023-05-10T10:16:11;0.80;;;0.80;;
13967;SDS011;39536;52.198;9.920;2023-05-10T10:18:38;1.20;;;1.20;;
13967;SDS011;39536;52.198;9.920;2023-05-10T10:21:05;1.20;;;1.10;;
13967;SDS011;39536;52.198;9.920;2023-05-10T10:23:33;1.77;;;1.00;;
13967;SDS011;39536;52.198;9.920;2023-05-10T10:26:01;1.00;;;1.00;;
13967;SDS011;39536;52.198;9.920;2023-05-10T10:28:31;3.27;;;1.20;;
13967;SDS011;39536;52.198;9.920;2023-05-10T10:31:13;2.23;;;1.57;;
13967;SDS011;39536;52.198;9.920;2023-05-10T10:33:51;1.93;;;1.80;;
13967;SDS011;39536;52.198;9.920;2023-05-10T10:36:25;1.67;;;1.57;;
13967;SDS011;39536;52.198;9.920;2023-05-10T10:38:59;1.53;;;1.43;;
13967;SDS011;39536;52.198;9.920;2023-05-10T10:41:28;1.80;;;1.70;;
13967;SDS011;39536;52.198;9.920;2023-05-10T10:46:59;2.67;;;2.23;;
13967;SDS011;39536;52.198;9.920;2023-05-10T10:49:42;2.47;;;2.27;;
13967;SDS011;39536;52.198;9.920;2023-05-10T10:52:13;2.30;;;2.10;;
13967;SDS011;39536;52.198;9.920;2023-05-10T10:54:53;5.30;;;2.20;;
13967;SDS011;39536;52.198;9.920;2023-05-10T10:57:24;2.97;;;2.40;;
13967;SDS011;39536;52.198;9.920;2023-05-10T10:59:53;2.90;;;2.70;;
13967;SDS011;39536;52.198;9.920;2023-05-10T11:02:44;3.27;;;2.70;;
13967;SDS011;39536;52.198;9.920;2023-05-10T11:05:23;2.53;;;2.33;;
13967;SDS011;39536;52.198;9.920;2023-05-10T11:08:14;2.80;;;2.67;;
13967;SDS011;39536;52.198;9.920;2023-05-10T11:10:54;2.73;;;2.50;;
13967;SDS011;39536;52.198;9.920;2023-05-10T11:13:29;3.80;;;2.83;;
13967;SDS011;39536;52.198;9.920;2023-05-10T11:15:58;2.93;;;2.63;;
13967;SDS011;39536;52.198;9.920;2023-05-10T11:18:36;2.97;;;2.70;;
13967;SDS011;39536;52.198;9.920;2023-05-10T11:21:03;2.73;;;2.53;;
13967;SDS011;39536;52.198;9.920;2023-05-10T11:23:31;5.90;;;3.13;;
13967;SDS011;39536;52.198;9.920;2023-05-10T11:25:58;2.90;;;2.70;;
13967;SDS011;39536;52.198;9.920;2023-05-10T11:28:26;3.07;;;2.87;;
13967;SDS011;39536;52.198;9.920;2023-05-10T11:30:53;2.93;;;2.73;;
13967;SDS011;39536;52.198;9.920;2023-05-10T11:33:20;3.13;;;2.50;;
13967;SDS011;39536;52.198;9.920;2023-05-10T11:35:48;3.67;;;3.33;;
13967;SDS011;39536;52.198;9.920;2023-05-10T11:38:14;2.97;;;2.77;;
13967;SDS011;39536;52.198;9.920;2023-05-10T11:40:41;2.93;;;2.73;;
13967;SDS011;39536;52.198;9.920;2023-05-10T11:43:08;3.30;;;3.00;;
13967;SDS011;39536;52.198;9.920;2023-05-10T11:45:35;3.90;;;3.50;;
13967;SDS011;39536;52.198;9.920;2023-05-10T11:48:02;3.10;;;2.90;;
13967;SDS011;39536;52.198;9.920;2023-05-10T11:50:29;3.40;;;3.10;;
13967;SDS011;39536;52.198;9.920;2023-05-10T11:52:57;3.00;;;2.80;;
13967;SDS011;39536;52.198;9.920;2023-05-10T11:55:24;3.60;;;2.67;;
13967;SDS011;39536;52.198;9.920;2023-05-10T11:57:53;3.00;;;2.80;;
13967;SDS011;39536;52.198;9.920;2023-05-10T12:00:20;3.80;;;3.50;;
13967;SDS011;39536;52.198;9.920;2023-05-10T12:02:47;2.40;;;2.30;;
13967;SDS011;39536;52.198;9.920;2023-05-10T12:05:14;2.90;;;2.70;;
13967;SDS011;39536;52.198;9.920;2023-05-10T12:07:42;6.07;;;2.57;;
13967;SDS011;39536;52.198;9.920;2023-05-10T12:10:10;2.60;;;2.40;;
13967;SDS011;39536;52.198;9.920;2023-05-10T12:12:39;5.33;;;2.67;;
13967;SDS011;39536;52.198;9.920;2023-05-10T12:15:10;3.20;;;2.30;;
13967;SDS011;39536;52.198;9.920;2023-05-10T12:17:38;2.77;;;2.57;;
13967;SDS011;39536;52.198;9.920;2023-05-10T12:20:15;2.60;;;2.40;;
13967;SDS011;39536;52.198;9.920;2023-05-10T12:22:46;3.50;;;3.20;;
13967;SDS011;39536;52.198;9.920;2023-05-10T12:25:16;2.80;;;2.60;;
13967;SDS011;39536;52.198;9.920;2023-05-10T12:27:49;2.57;;;2.37;;
13967;SDS011;39536;52.198;9.920;2023-05-10T12:30:20;3.27;;;2.60;;
13967;SDS011;39536;52.198;9.920;2023-05-10T12:32:48;2.30;;;2.20;;
13967;SDS011;39536;52.198;9.920;2023-05-10T12:35:15;2.10;;;2.00;;
13967;SDS011;39536;52.198;9.920;2023-05-10T12:37:42;8.83;;;2.93;;
13967;SDS011;39536;52.198;9.920;2023-05-10T12:40:09;2.37;;;2.20;;
13967;SDS011;39536;52.198;9.920;2023-05-10T12:42:38;3.10;;;2.90;;
13967;SDS011;39536;52.198;9.920;2023-05-10T12:45:06;3.20;;;3.00;;
13967;SDS011;39536;52.198;9.920;2023-05-10T12:47:33;3.47;;;3.17;;
13967;SDS011;39536;52.198;9.920;2023-05-10T12:50:00;3.80;;;3.50;;
13967;SDS011;39536;52.198;9.920;2023-05-10T12:52:27;3.97;;;3.50;;
13967;SDS011;39536;52.198;9.920;2023-05-10T12:54:54;7.27;;;4.27;;
13967;SDS011;39536;52.198;9.920;2023-05-10T12:57:20;4.60;;;4.20;;
13967;SDS011;39536;52.198;9.920;2023-05-10T12:59:48;3.57;;;3.27;;
13967;SDS011;39536;52.198;9.920;2023-05-10T13:02:24;4.20;;;3.90;;
13967;SDS011;39536;52.198;9.920;2023-05-10T13:04:50;3.23;;;3.03;;
13967;SDS011;39536;52.198;9.920;2023-05-10T13:07:17;3.83;;;3.40;;
13967;SDS011;39536;52.198;9.920;2023-05-10T13:09:43;3.30;;;3.00;;
13967;SDS011;39536;52.198;9.920;2023-05-10T13:12:10;3.40;;;3.10;;
13967;SDS011;39536;52.198;9.920;2023-05-10T13:14:36;3.67;;;3.00;;
13967;SDS011;39536;52.198;9.920;2023-05-10T13:17:04;3.10;;;2.90;;
13967;SDS011;39536;52.198;9.920;2023-05-10T13:19:30;3.73;;;3.37;;
13967;SDS011;39536;52.198;9.920;2023-05-10T13:21:57;4.03;;;3.70;;
13967;SDS011;39536;52.198;9.920;2023-05-10T13:24:23;4.60;;;4.20;;
13967;SDS011;39536;52.198;9.920;2023-05-10T13:26:50;4.30;;;4.00;;
13967;SDS011;39536;52.198;9.920;2023-05-10T13:29:16;3.80;;;3.50;;
13967;SDS011;39536;52.198;9.920;2023-05-10T13:31:43;3.70;;;3.40;;
13967;SDS011;39536;52.198;9.920;2023-05-10T13:34:11;4.10;;;3.53;;
13967;SDS011;39536;52.198;9.920;2023-05-10T13:36:37;3.73;;;2.93;;
13967;SDS011;39536;52.198;9.920;2023-05-10T13:39:04;3.50;;;3.00;;
13967;SDS011;39536;52.198;9.920;2023-05-10T13:41:30;3.00;;;2.80;;
13967;SDS011;39536;52.198;9.920;2023-05-10T13:43:57;3.53;;;3.23;;
13967;SDS011;39536;52.198;9.920;2023-05-10T13:46:23;2.60;;;2.23;;
13967;SDS011;39536;52.198;9.920;2023-05-10T13:48:49;2.70;;;2.50;;
13967;SDS011;39536;52.198;9.920;2023-05-10T13:51:17;3.33;;;3.13;;
13967;SDS011;39536;52.198;9.920;2023-05-10T13:53:44;4.27;;;3.07;;
13967;SDS011;39536;52.198;9.920;2023-05-10T13:56:12;3.83;;;3.27;;
13967;SDS011;39536;52.198;9.920;2023-05-10T13:58:38;3.23;;;2.93;;
13967;SDS011;39536;52.198;9.920;2023-05-10T14:01:05;3.33;;;3.03;;
13967;SDS011;39536;52.198;9.920;2023-05-10T14:03:31;3.07;;;2.60;;
13967;SDS011;39536;52.198;9.920;2023-05-10T14:05:58;2.30;;;2.10;;
13967;SDS011;39536;52.198;9.920;2023-05-10T14:08:26;2.50;;;2.30;;
13967;SDS011;39536;52.198;9.920;2023-05-10T14:10:53;2.50;;;2.30;;
13967;SDS011;39536;52.198;9.920;2023-05-10T14:13:21;2.20;;;2.00;;
13967;SDS011;39536;52.198;9.920;2023-05-10T14:15:47;1.97;;;1.87;;
13967;SDS011;39536;52.198;9.920;2023-05-10T14:18:14;2.30;;;2.10;;
13967;SDS011;39536;52.198;9.920;2023-05-10T14:20:40;2.57;;;2.37;;
13967;SDS011;39536;52.198;9.920;2023-05-10T14:23:07;2.43;;;2.27;;
13967;SDS011;39536;52.198;9.920;2023-05-10T14:25:35;4.97;;;2.27;;
13967;SDS011;39536;52.198;9.920;2023-05-10T14:28:03;2.53;;;2.33;;
13967;SDS011;39536;52.198;9.920;2023-05-10T14:30:29;2.03;;;1.90;;
13967;SDS011;39536;52.198;9.920;2023-05-10T14:32:57;1.93;;;1.83;;
13967;SDS011;39536;52.198;9.920;2023-05-10T14:35:26;2.67;;;2.47;;
13967;SDS011;39536;52.198;9.920;2023-05-10T14:37:52;2.27;;;2.17;;
13967;SDS011;39536;52.198;9.920;2023-05-10T14:40:19;2.10;;;2.00;;
13967;SDS011;39536;52.198;9.920;2023-05-10T14:42:47;1.93;;;1.83;;
13967;SDS011;39536;52.198;9.920;2023-05-10T14:45:13;1.83;;;1.73;;
13967;SDS011;39536;52.198;9.920;2023-05-10T14:47:40;2.73;;;2.30;;
13967;SDS011;39536;52.198;9.920;2023-05-10T14:50:06;2.30;;;2.10;;
13967;SDS011;39536;52.198;9.920;2023-05-10T14:52:33;3.13;;;1.83;;
13967;SDS011;39536;52.198;9.920;2023-05-10T14:55:01;2.03;;;1.90;;
13967;SDS011;39536;52.198;9.920;2023-05-10T14:57:27;2.43;;;2.30;;